This is the latest recevied weather packets stored in our database for station/object WX7FGZ-6. If no packets are shown the sender has not sent any weather packets the latest 10 day(s).
| Time | Temp. | Humidity | Pressure | Rain* | Wind** | Luminosity | Snow |
|---|---|---|---|---|---|---|---|
| 1777925290 | 4.44° C | 59% | 1017.9 hPa | 0 mm | - | - | - |
| 1777924990 | 4.44° C | 60% | 1018 hPa | 0 mm | - | - | - |
| 1777924690 | 4.44° C | 58% | 1017.8 hPa | 0 mm | - | - | - |
| 1777924390 | 3.89° C | 58% | 1018.4 hPa | 0 mm | - | - | - |
| 1777924090 | 4.44° C | 55% | 1018.6 hPa | 0 mm | - | - | - |
| 1777923790 | 4.44° C | 56% | 1018.4 hPa | 0 mm | - | - | - |
| 1777923490 | 4.44° C | 60% | 1017.8 hPa | 0 mm | - | - | - |
| 1777923190 | 5.56° C | 58% | 1017.8 hPa | 0 mm | - | - | - |
| 1777922890 | 5° C | 59% | 1018 hPa | 0 mm | - | - | - |
| 1777922591 | 5° C | 62% | 1018.1 hPa | 0 mm | - | - | - |
| 1777922290 | 4.44° C | 59% | 1018.2 hPa | 0 mm | - | - | - |
| 1777921990 | 3.89° C | 62% | 1017.6 hPa | 0 mm | - | - | - |
| 1777921690 | 3.89° C | 62% | 1017.7 hPa | 0 mm | - | - | - |
| 1777921390 | 3.89° C | 65% | 1017.6 hPa | 0 mm | - | - | - |
| 1777921090 | 3.33° C | 65% | 1017.9 hPa | 0 mm | - | - | - |
| 1777920790 | 2.78° C | 70% | 1017.7 hPa | 0 mm | - | - | - |
| 1777920490 | 2.22° C | 68% | 1017.8 hPa | 0 mm | - | - | - |
| 1777920190 | 2.22° C | 69% | 1017.4 hPa | 0 mm | - | - | - |
| 1777919606 | 1.67° C | 68% | 1017.3 hPa | 0 mm | - | - | - |
| 1777919307 | 1.67° C | 67% | 1018.1 hPa | 0 mm | - | - | - |
| 1777919007 | 1.67° C | 69% | 1018.1 hPa | 0 mm | - | - | - |
| 1777918335 | 1.11° C | 70% | 1017.9 hPa | 0 mm | - | - | - |
| 1777918035 | 1.67° C | 69% | 1018.1 hPa | 0 mm | - | - | - |
| 1777917735 | 1.11° C | 67% | 1018.1 hPa | 0 mm | - | - | - |
| 1777917435 | 1.11° C | 72% | 1017.6 hPa | 0 mm | - | - | - |
* Rain latest hour (hover to see other rain measurements)
** Current wind speed in m/s (hover to see current wind gust speed)